METAR AND TAF INFORMATION
METAR FOR LTFE
ADDS - METARS form results

(0301 UTC 21 May 2019)
Data provider http://aviationweather.gov/metar/data/
 
METAR text: LTFE 210250Z 08004KT 050V120 CAVOK 16/10 Q1015 NOSIG
Conditions at: LTFE (BODRUM MILAS , TR) observed 0250 UTC 21 May 2019
Temperature: 16.0°C (61°F)
Dewpoint: 10.0°C (50°F) [RH = 68%]
Pressure (altimeter): 29.97 inches Hg (1015.0 mb)
Winds: from the E (80 degrees) at 5 MPH (4 knots; 2.1 m/s)
Visibility: 6 or more miles (10+ km)
Ceiling: ceiling and visibility are OK
Clouds: unknown
Weather: no significant weather observed at this time

METAR text: LTFE 210220Z 10007KT CAVOK 16/09 Q1015 NOSIG RMK RWY10 11009KT
Conditions at: LTFE (BODRUM MILAS , TR) observed 0220 UTC 21 May 2019
Temperature: 16.0°C (61°F)
Dewpoint: 9.0°C (48°F) [RH = 63%]
Pressure (altimeter): 29.97 inches Hg (1015.0 mb)
Winds: from the E (100 degrees) at 8 MPH (7 knots; 3.6 m/s)
Visibility: 6 or more miles (10+ km)
Ceiling: ceiling and visibility are OK
Clouds: unknown
Weather: no significant weather observed at this time

Forecast for: LTFE (BODRUM MILAS , TR)
Text: TAF LTFE 202240Z 2100/2124 VRB02KT CAVOK
Forecast period: 0000 to 0800 UTC 21 May 2019
Forecast type: FROM: standard forecast or significant change
Winds: variable direction winds at 2 MPH (2 knots; 1.0 m/s)
Visibility: 6 or more miles 10+ km)
Ceiling: unknown
Clouds: missing
Weather: NSW  (no significant weather)
Text: BECMG 2108/2110 22012KT FEW035 BKN120
Forecast period: 0800 to 1400 UTC 21 May 2019
Forecast type: BECOMING: Conditions expected to become as follows by 1000 UTC 21 May 2019
Winds: from the SW (220 degrees) at 14 MPH (12 knots; 6.2 m/s)
Visibility: 6 or more miles 10+ km)
Ceiling: 12000 feet AGL
Clouds: few clouds at 3500 feet AGL
broken clouds at 12000 feet AGL
Weather: NSW  (no significant weather)
Text: BECMG 2114/2116 VRB02KT CAVOK
Forecast period: 1400 UTC 21 May 2019 to 0000 UTC 22 May 2019
Forecast type: BECOMING: Conditions expected to become as follows by 1600 UTC 21 May 2019
Winds: variable direction winds at 2 MPH (2 knots; 1.0 m/s)
Visibility: 6 or more miles 10+ km)
Ceiling: unknown
Clouds: missing
Weather: NSW  (no significant weather)

 AIRPORT MAP

 RUNWAY INFORMATION
Runway 11 Runway length 9842 ft Runway width 148 ft
Runway elevation 9 ft Runway displaced threshold 0 ft Runway heading 107
Runway 29 Runway length 9842 ft Runway width 148 ft
Runway elevation 21 ft Runway displaced threshold 0 ft Runway heading 287

 AIRPORT FREQUENCIES
Type APP Name MENDERES A Frequency 119.5 MHZ
Type APP Name MENDERES A Frequency 119.775 MHZ
Type ATIS Name ATIS Frequency 128.5 MHZ
Type GND Name GND Frequency 121.95 MHZ
Type TWR Name TWR Frequency 120.5 MHZ

 AIRPORT NEAR NAVIGATION AIDS
Type VOR-DME Name Milas Bodrum Frequency 116700 KHZ
Type NDB Name Milas Bodrum Frequency 389 KHZ
Type VOR-DME Name Kiyikislacik Frequency 113900 KHZ



>